Řízení letového provozu České republiky
Letiste: LKKV Aktualizace: 20.07.2018 15:31:07  UTC
 METAR LKKV 20.07. 15:30 ...
METAR LKKV 201530Z 13006KT 080V180 CAVOK 25/08 Q1014 RMK REG QNH 1010=
 TAF LKKV 20.07. 11:00 ...
TAF LKKV 201100Z 2012/2118 VRB02KT CAVOK      TEMPO 2012/2016 9999 SCT047      TEMPO 2108/2116 7000 SHRA SCT045TCU BKN047      PROB30 TEMPO 2111/2114 4000 TSRA SCT040CB BKN045=